sensor_id;sensor_type;location;lat;lon;timestamp;temperature;humidity
52889;DHT22;41413;52.770;6.892;2023-09-07T00:01:36;22.10;99.90
52889;DHT22;41413;52.770;6.892;2023-09-07T00:04:03;22.10;99.90
52889;DHT22;41413;52.770;6.892;2023-09-07T00:06:31;22.10;99.90
52889;DHT22;41413;52.770;6.892;2023-09-07T00:08:58;22.10;99.90
52889;DHT22;41413;52.770;6.892;2023-09-07T00:11:25;22.10;99.90
52889;DHT22;41413;52.770;6.892;2023-09-07T00:13:52;22.00;99.90
52889;DHT22;41413;52.770;6.892;2023-09-07T00:16:19;22.00;99.90
52889;DHT22;41413;52.770;6.892;2023-09-07T00:18:46;22.00;99.90
52889;DHT22;41413;52.770;6.892;2023-09-07T00:21:12;21.90;99.90
52889;DHT22;41413;52.770;6.892;2023-09-07T00:23:39;21.90;99.90
52889;DHT22;41413;52.770;6.892;2023-09-07T00:26:06;21.80;99.90
52889;DHT22;41413;52.770;6.892;2023-09-07T00:28:33;21.80;99.90
52889;DHT22;41413;52.770;6.892;2023-09-07T00:31:01;21.80;99.90
52889;DHT22;41413;52.770;6.892;2023-09-07T00:33:28;21.70;99.90
52889;DHT22;41413;52.770;6.892;2023-09-07T00:35:54;21.60;99.90
52889;DHT22;41413;52.770;6.892;2023-09-07T00:38:21;21.60;99.90
52889;DHT22;41413;52.770;6.892;2023-09-07T00:40:48;21.60;99.90
52889;DHT22;41413;52.770;6.892;2023-09-07T00:43:15;21.60;99.90
52889;DHT22;41413;52.770;6.892;2023-09-07T00:45:42;21.50;99.90
52889;DHT22;41413;52.770;6.892;2023-09-07T00:48:09;21.50;99.90
52889;DHT22;41413;52.770;6.892;2023-09-07T00:50:38;21.50;99.90
52889;DHT22;41413;52.770;6.892;2023-09-07T00:53:05;21.40;99.90
52889;DHT22;41413;52.770;6.892;2023-09-07T00:55:33;21.40;99.90
52889;DHT22;41413;52.770;6.892;2023-09-07T00:58:02;21.40;99.90
52889;DHT22;41413;52.770;6.892;2023-09-07T01:00:30;21.30;99.90
52889;DHT22;41413;52.770;6.892;2023-09-07T01:02:57;21.30;99.90
52889;DHT22;41413;52.770;6.892;2023-09-07T01:05:47;21.30;99.90
52889;DHT22;41413;52.770;6.892;2023-09-07T01:08:26;21.20;99.90
52889;DHT22;41413;52.770;6.892;2023-09-07T01:10:55;21.20;99.90
52889;DHT22;41413;52.770;6.892;2023-09-07T01:13:22;21.20;99.90
52889;DHT22;41413;52.770;6.892;2023-09-07T01:15:50;21.20;99.90
52889;DHT22;41413;52.770;6.892;2023-09-07T01:18:17;21.10;99.90
52889;DHT22;41413;52.770;6.892;2023-09-07T01:20:48;21.10;99.90
52889;DHT22;41413;52.770;6.892;2023-09-07T01:23:15;21.00;99.90
52889;DHT22;41413;52.770;6.892;2023-09-07T01:25:42;21.00;99.90
52889;DHT22;41413;52.770;6.892;2023-09-07T01:28:10;21.00;99.90
52889;DHT22;41413;52.770;6.892;2023-09-07T01:30:37;20.90;99.90
52889;DHT22;41413;52.770;6.892;2023-09-07T01:33:05;20.90;99.90
52889;DHT22;41413;52.770;6.892;2023-09-07T01:35:33;20.90;99.90
52889;DHT22;41413;52.770;6.892;2023-09-07T01:38:01;20.90;99.90
52889;DHT22;41413;52.770;6.892;2023-09-07T01:40:29;20.90;99.90
52889;DHT22;41413;52.770;6.892;2023-09-07T01:42:55;20.80;99.90
52889;DHT22;41413;52.770;6.892;2023-09-07T01:45:22;20.90;99.90
52889;DHT22;41413;52.770;6.892;2023-09-07T01:47:50;20.80;99.90
52889;DHT22;41413;52.770;6.892;2023-09-07T01:50:18;20.80;99.90
52889;DHT22;41413;52.770;6.892;2023-09-07T01:52:47;20.80;99.90
52889;DHT22;41413;52.770;6.892;2023-09-07T01:55:15;20.80;99.90
52889;DHT22;41413;52.770;6.892;2023-09-07T01:57:42;20.80;99.90
52889;DHT22;41413;52.770;6.892;2023-09-07T02:00:10;20.80;99.90
52889;DHT22;41413;52.770;6.892;2023-09-07T02:02:37;20.80;99.90
52889;DHT22;41413;52.770;6.892;2023-09-07T02:05:04;20.90;99.90
52889;DHT22;41413;52.770;6.892;2023-09-07T02:07:32;20.80;99.90
52889;DHT22;41413;52.770;6.892;2023-09-07T02:09:58;20.80;99.90
52889;DHT22;41413;52.770;6.892;2023-09-07T02:12:25;20.80;99.90
52889;DHT22;41413;52.770;6.892;2023-09-07T02:14:52;20.80;99.90
52889;DHT22;41413;52.770;6.892;2023-09-07T02:17:19;20.80;99.90
52889;DHT22;41413;52.770;6.892;2023-09-07T02:19:47;20.80;99.90
52889;DHT22;41413;52.770;6.892;2023-09-07T02:22:14;20.80;99.90
52889;DHT22;41413;52.770;6.892;2023-09-07T02:24:41;20.80;99.90
52889;DHT22;41413;52.770;6.892;2023-09-07T02:27:08;20.80;99.90
52889;DHT22;41413;52.770;6.892;2023-09-07T02:29:35;20.80;99.90
52889;DHT22;41413;52.770;6.892;2023-09-07T02:32:02;20.80;99.90
52889;DHT22;41413;52.770;6.892;2023-09-07T02:34:30;20.80;99.90
52889;DHT22;41413;52.770;6.892;2023-09-07T02:36:57;20.70;99.90
52889;DHT22;41413;52.770;6.892;2023-09-07T02:39:23;20.80;99.90
52889;DHT22;41413;52.770;6.892;2023-09-07T02:41:53;20.70;99.90
52889;DHT22;41413;52.770;6.892;2023-09-07T02:44:20;20.80;99.90
52889;DHT22;41413;52.770;6.892;2023-09-07T02:46:47;20.70;99.90
52889;DHT22;41413;52.770;6.892;2023-09-07T02:49:13;20.80;99.90
52889;DHT22;41413;52.770;6.892;2023-09-07T02:51:40;20.80;99.90
52889;DHT22;41413;52.770;6.892;2023-09-07T02:54:07;20.70;99.90
52889;DHT22;41413;52.770;6.892;2023-09-07T02:56:33;20.70;99.90
52889;DHT22;41413;52.770;6.892;2023-09-07T02:59:00;20.70;99.90
52889;DHT22;41413;52.770;6.892;2023-09-07T03:01:27;20.60;99.90
52889;DHT22;41413;52.770;6.892;2023-09-07T03:03:54;20.60;99.90
52889;DHT22;41413;52.770;6.892;2023-09-07T03:06:21;20.60;99.90
52889;DHT22;41413;52.770;6.892;2023-09-07T03:08:48;20.50;99.90
52889;DHT22;41413;52.770;6.892;2023-09-07T03:11:14;20.50;99.90
52889;DHT22;41413;52.770;6.892;2023-09-07T03:13:41;20.40;99.90
52889;DHT22;41413;52.770;6.892;2023-09-07T03:16:09;20.40;99.90
52889;DHT22;41413;52.770;6.892;2023-09-07T03:18:36;20.40;99.90
52889;DHT22;41413;52.770;6.892;2023-09-07T03:21:03;20.40;99.90
52889;DHT22;41413;52.770;6.892;2023-09-07T03:23:32;20.40;99.90
52889;DHT22;41413;52.770;6.892;2023-09-07T03:25:59;20.30;99.90
52889;DHT22;41413;52.770;6.892;2023-09-07T03:28:26;20.30;99.90
52889;DHT22;41413;52.770;6.892;2023-09-07T03:30:56;20.30;99.90
52889;DHT22;41413;52.770;6.892;2023-09-07T03:33:23;20.20;99.90
52889;DHT22;41413;52.770;6.892;2023-09-07T03:35:50;20.20;99.90
52889;DHT22;41413;52.770;6.892;2023-09-07T03:38:18;20.10;99.90
52889;DHT22;41413;52.770;6.892;2023-09-07T03:40:45;20.10;99.90
52889;DHT22;41413;52.770;6.892;2023-09-07T03:43:12;20.10;99.90
52889;DHT22;41413;52.770;6.892;2023-09-07T03:45:39;20.00;99.90
52889;DHT22;41413;52.770;6.892;2023-09-07T03:48:06;20.10;99.90
52889;DHT22;41413;52.770;6.892;2023-09-07T03:50:32;20.00;99.90
52889;DHT22;41413;52.770;6.892;2023-09-07T03:52:59;20.00;99.90
52889;DHT22;41413;52.770;6.892;2023-09-07T03:55:26;20.00;99.90
52889;DHT22;41413;52.770;6.892;2023-09-07T03:57:53;19.90;99.90
52889;DHT22;41413;52.770;6.892;2023-09-07T04:00:19;19.90;99.90
52889;DHT22;41413;52.770;6.892;2023-09-07T04:02:46;19.80;99.90
52889;DHT22;41413;52.770;6.892;2023-09-07T04:05:13;19.80;99.90
52889;DHT22;41413;52.770;6.892;2023-09-07T04:07:40;19.80;99.90
52889;DHT22;41413;52.770;6.892;2023-09-07T04:10:07;19.70;99.90
52889;DHT22;41413;52.770;6.892;2023-09-07T04:12:34;19.80;99.90
52889;DHT22;41413;52.770;6.892;2023-09-07T04:15:02;19.80;99.90
52889;DHT22;41413;52.770;6.892;2023-09-07T04:17:29;19.80;99.90
52889;DHT22;41413;52.770;6.892;2023-09-07T04:19:56;19.80;99.90
52889;DHT22;41413;52.770;6.892;2023-09-07T04:22:23;19.70;99.90
52889;DHT22;41413;52.770;6.892;2023-09-07T04:24:49;19.70;99.90
52889;DHT22;41413;52.770;6.892;2023-09-07T04:27:16;19.70;99.90
52889;DHT22;41413;52.770;6.892;2023-09-07T04:29:43;19.70;99.90
52889;DHT22;41413;52.770;6.892;2023-09-07T04:32:10;19.60;99.90
52889;DHT22;41413;52.770;6.892;2023-09-07T04:34:37;19.60;99.90
52889;DHT22;41413;52.770;6.892;2023-09-07T04:37:04;19.60;99.90
52889;DHT22;41413;52.770;6.892;2023-09-07T04:39:30;19.60;99.90
52889;DHT22;41413;52.770;6.892;2023-09-07T04:41:57;19.60;99.90
52889;DHT22;41413;52.770;6.892;2023-09-07T04:44:26;19.50;99.90
52889;DHT22;41413;52.770;6.892;2023-09-07T04:46:56;19.50;99.90
52889;DHT22;41413;52.770;6.892;2023-09-07T04:49:24;19.50;99.90
52889;DHT22;41413;52.770;6.892;2023-09-07T04:51:53;19.50;99.90
52889;DHT22;41413;52.770;6.892;2023-09-07T04:54:20;19.50;99.90
52889;DHT22;41413;52.770;6.892;2023-09-07T04:56:47;19.50;99.90
52889;DHT22;41413;52.770;6.892;2023-09-07T04:59:14;19.40;99.90
52889;DHT22;41413;52.770;6.892;2023-09-07T05:01:41;19.40;99.90
52889;DHT22;41413;52.770;6.892;2023-09-07T05:04:08;19.40;99.90
52889;DHT22;41413;52.770;6.892;2023-09-07T05:06:35;19.40;99.90
52889;DHT22;41413;52.770;6.892;2023-09-07T05:09:04;19.40;99.90
52889;DHT22;41413;52.770;6.892;2023-09-07T05:11:31;19.40;99.90
52889;DHT22;41413;52.770;6.892;2023-09-07T05:14:01;19.40;99.90
52889;DHT22;41413;52.770;6.892;2023-09-07T05:16:28;19.40;99.90
52889;DHT22;41413;52.770;6.892;2023-09-07T05:18:55;19.40;99.90
52889;DHT22;41413;52.770;6.892;2023-09-07T05:21:22;19.40;99.90
52889;DHT22;41413;52.770;6.892;2023-09-07T05:23:49;19.40;99.90
52889;DHT22;41413;52.770;6.892;2023-09-07T05:26:21;19.30;99.90
52889;DHT22;41413;52.770;6.892;2023-09-07T05:28:49;19.40;99.90
52889;DHT22;41413;52.770;6.892;2023-09-07T05:31:16;19.30;99.90
52889;DHT22;41413;52.770;6.892;2023-09-07T05:33:43;19.40;99.90
52889;DHT22;41413;52.770;6.892;2023-09-07T05:36:10;19.40;99.90
52889;DHT22;41413;52.770;6.892;2023-09-07T05:38:37;19.30;99.90
52889;DHT22;41413;52.770;6.892;2023-09-07T05:41:04;19.30;99.90
52889;DHT22;41413;52.770;6.892;2023-09-07T05:43:31;19.30;99.90
52889;DHT22;41413;52.770;6.892;2023-09-07T05:45:58;19.30;99.90
52889;DHT22;41413;52.770;6.892;2023-09-07T05:48:25;19.30;99.90
52889;DHT22;41413;52.770;6.892;2023-09-07T05:50:52;19.30;99.90
52889;DHT22;41413;52.770;6.892;2023-09-07T05:53:19;19.30;99.90
52889;DHT22;41413;52.770;6.892;2023-09-07T05:55:47;19.30;99.90
52889;DHT22;41413;52.770;6.892;2023-09-07T05:58:13;19.30;99.90
52889;DHT22;41413;52.770;6.892;2023-09-07T06:00:41;19.30;99.90
52889;DHT22;41413;52.770;6.892;2023-09-07T06:03:08;19.30;99.90
52889;DHT22;41413;52.770;6.892;2023-09-07T06:05:36;19.40;99.90
52889;DHT22;41413;52.770;6.892;2023-09-07T06:08:05;19.40;99.90
52889;DHT22;41413;52.770;6.892;2023-09-07T06:10:35;19.40;99.90
52889;DHT22;41413;52.770;6.892;2023-09-07T06:13:02;19.40;99.90
52889;DHT22;41413;52.770;6.892;2023-09-07T06:15:30;19.50;99.90
52889;DHT22;41413;52.770;6.892;2023-09-07T06:17:57;19.50;99.90
52889;DHT22;41413;52.770;6.892;2023-09-07T06:20:24;19.50;99.90
52889;DHT22;41413;52.770;6.892;2023-09-07T06:22:51;19.50;99.90
52889;DHT22;41413;52.770;6.892;2023-09-07T06:25:18;19.50;99.90
52889;DHT22;41413;52.770;6.892;2023-09-07T06:27:45;19.60;99.90
52889;DHT22;41413;52.770;6.892;2023-09-07T06:30:12;19.60;99.90
52889;DHT22;41413;52.770;6.892;2023-09-07T06:32:39;19.60;99.90
52889;DHT22;41413;52.770;6.892;2023-09-07T06:35:07;19.60;99.90
52889;DHT22;41413;52.770;6.892;2023-09-07T06:37:34;19.70;99.90
52889;DHT22;41413;52.770;6.892;2023-09-07T06:40:02;19.70;99.90
52889;DHT22;41413;52.770;6.892;2023-09-07T06:42:30;19.80;99.90
52889;DHT22;41413;52.770;6.892;2023-09-07T06:44:57;19.80;99.90
52889;DHT22;41413;52.770;6.892;2023-09-07T06:47:24;19.90;99.90
52889;DHT22;41413;52.770;6.892;2023-09-07T06:49:51;19.90;99.90
52889;DHT22;41413;52.770;6.892;2023-09-07T06:52:17;20.00;99.90
52889;DHT22;41413;52.770;6.892;2023-09-07T06:54:44;20.00;99.90
52889;DHT22;41413;52.770;6.892;2023-09-07T06:57:11;20.00;99.90
52889;DHT22;41413;52.770;6.892;2023-09-07T06:59:38;20.10;99.90
52889;DHT22;41413;52.770;6.892;2023-09-07T07:02:05;20.10;99.90
52889;DHT22;41413;52.770;6.892;2023-09-07T07:04:32;20.20;99.90
52889;DHT22;41413;52.770;6.892;2023-09-07T07:06:59;20.20;99.90
52889;DHT22;41413;52.770;6.892;2023-09-07T07:09:27;20.30;99.90
52889;DHT22;41413;52.770;6.892;2023-09-07T07:11:56;20.30;99.90
52889;DHT22;41413;52.770;6.892;2023-09-07T07:14:23;20.40;99.90
52889;DHT22;41413;52.770;6.892;2023-09-07T07:16:49;20.40;99.90
52889;DHT22;41413;52.770;6.892;2023-09-07T07:19:16;20.50;99.90
52889;DHT22;41413;52.770;6.892;2023-09-07T07:21:43;20.60;99.90
52889;DHT22;41413;52.770;6.892;2023-09-07T07:24:10;20.60;99.90
52889;DHT22;41413;52.770;6.892;2023-09-07T07:26:37;20.60;99.90
52889;DHT22;41413;52.770;6.892;2023-09-07T07:29:04;20.60;99.90
52889;DHT22;41413;52.770;6.892;2023-09-07T07:31:31;20.70;99.90
52889;DHT22;41413;52.770;6.892;2023-09-07T07:33:58;20.80;99.90
52889;DHT22;41413;52.770;6.892;2023-09-07T07:36:25;20.80;99.90
52889;DHT22;41413;52.770;6.892;2023-09-07T07:38:51;20.80;99.90
52889;DHT22;41413;52.770;6.892;2023-09-07T07:41:18;21.00;99.90
52889;DHT22;41413;52.770;6.892;2023-09-07T07:43:45;21.00;99.90
52889;DHT22;41413;52.770;6.892;2023-09-07T07:46:12;21.20;99.90
52889;DHT22;41413;52.770;6.892;2023-09-07T07:48:42;21.20;99.90
52889;DHT22;41413;52.770;6.892;2023-09-07T07:51:09;21.30;99.90
52889;DHT22;41413;52.770;6.892;2023-09-07T07:53:38;21.40;99.90
52889;DHT22;41413;52.770;6.892;2023-09-07T07:56:05;21.50;99.90
52889;DHT22;41413;52.770;6.892;2023-09-07T07:58:32;21.70;99.90
52889;DHT22;41413;52.770;6.892;2023-09-07T08:00:59;22.00;99.90
52889;DHT22;41413;52.770;6.892;2023-09-07T08:03:26;22.20;99.90
52889;DHT22;41413;52.770;6.892;2023-09-07T08:05:53;22.50;99.90
52889;DHT22;41413;52.770;6.892;2023-09-07T08:08:19;22.70;99.90
52889;DHT22;41413;52.770;6.892;2023-09-07T08:10:46;23.00;99.90
52889;DHT22;41413;52.770;6.892;2023-09-07T08:13:13;23.60;99.90
52889;DHT22;41413;52.770;6.892;2023-09-07T08:15:40;25.10;99.90
52889;DHT22;41413;52.770;6.892;2023-09-07T08:18:07;26.60;99.90
52889;DHT22;41413;52.770;6.892;2023-09-07T08:20:36;28.10;99.90
52889;DHT22;41413;52.770;6.892;2023-09-07T08:23:03;29.40;99.30
52889;DHT22;41413;52.770;6.892;2023-09-07T08:25:34;30.30;97.00
52889;DHT22;41413;52.770;6.892;2023-09-07T08:28:01;31.20;95.80
52889;DHT22;41413;52.770;6.892;2023-09-07T08:30:33;31.70;93.10
52889;DHT22;41413;52.770;6.892;2023-09-07T08:33:00;32.20;92.60
52889;DHT22;41413;52.770;6.892;2023-09-07T08:35:29;32.70;92.30
52889;DHT22;41413;52.770;6.892;2023-09-07T08:37:57;32.90;91.70
52889;DHT22;41413;52.770;6.892;2023-09-07T08:40:26;33.30;91.00
52889;DHT22;41413;52.770;6.892;2023-09-07T08:42:54;33.80;90.70
52889;DHT22;41413;52.770;6.892;2023-09-07T08:45:25;34.00;90.30
52889;DHT22;41413;52.770;6.892;2023-09-07T08:47:53;34.10;88.40
52889;DHT22;41413;52.770;6.892;2023-09-07T08:50:22;34.50;88.50
52889;DHT22;41413;52.770;6.892;2023-09-07T08:52:52;34.70;86.80
52889;DHT22;41413;52.770;6.892;2023-09-07T08:55:20;34.70;84.10
52889;DHT22;41413;52.770;6.892;2023-09-07T08:57:48;34.60;84.90
52889;DHT22;41413;52.770;6.892;2023-09-07T09:00:15;34.70;83.90
52889;DHT22;41413;52.770;6.892;2023-09-07T09:02:46;34.70;85.30
52889;DHT22;41413;52.770;6.892;2023-09-07T09:05:23;34.70;81.80
52889;DHT22;41413;52.770;6.892;2023-09-07T09:08:01;34.70;80.90
52889;DHT22;41413;52.770;6.892;2023-09-07T09:10:29;34.60;82.60
52889;DHT22;41413;52.770;6.892;2023-09-07T09:12:56;34.70;84.00
52889;DHT22;41413;52.770;6.892;2023-09-07T09:15:23;35.00;83.50
52889;DHT22;41413;52.770;6.892;2023-09-07T09:17:50;35.20;81.80
52889;DHT22;41413;52.770;6.892;2023-09-07T09:20:26;35.40;82.20
52889;DHT22;41413;52.770;6.892;2023-09-07T09:22:55;35.30;80.20
52889;DHT22;41413;52.770;6.892;2023-09-07T09:25:23;35.40;80.90
52889;DHT22;41413;52.770;6.892;2023-09-07T09:27:50;35.50;81.80
52889;DHT22;41413;52.770;6.892;2023-09-07T09:30:16;35.90;81.60
52889;DHT22;41413;52.770;6.892;2023-09-07T09:32:44;35.90;80.10
52889;DHT22;41413;52.770;6.892;2023-09-07T09:35:11;36.00;80.60
52889;DHT22;41413;52.770;6.892;2023-09-07T09:37:45;36.20;80.20
52889;DHT22;41413;52.770;6.892;2023-09-07T09:40:13;36.10;80.40
52889;DHT22;41413;52.770;6.892;2023-09-07T09:42:42;36.20;79.40
52889;DHT22;41413;52.770;6.892;2023-09-07T09:45:10;36.10;78.80
52889;DHT22;41413;52.770;6.892;2023-09-07T09:47:41;36.20;79.10
52889;DHT22;41413;52.770;6.892;2023-09-07T09:50:10;36.20;79.30
52889;DHT22;41413;52.770;6.892;2023-09-07T09:52:38;36.00;79.00
52889;DHT22;41413;52.770;6.892;2023-09-07T09:55:06;36.10;78.30
52889;DHT22;41413;52.770;6.892;2023-09-07T09:57:35;36.00;77.20
52889;DHT22;41413;52.770;6.892;2023-09-07T10:00:06;35.70;76.90
52889;DHT22;41413;52.770;6.892;2023-09-07T10:02:51;35.80;77.70
52889;DHT22;41413;52.770;6.892;2023-09-07T10:05:20;35.90;77.90
52889;DHT22;41413;52.770;6.892;2023-09-07T10:07:49;35.90;77.40
52889;DHT22;41413;52.770;6.892;2023-09-07T10:10:20;36.00;77.80
52889;DHT22;41413;52.770;6.892;2023-09-07T10:12:53;36.00;78.00
52889;DHT22;41413;52.770;6.892;2023-09-07T10:15:25;36.00;77.90
52889;DHT22;41413;52.770;6.892;2023-09-07T10:18:08;35.80;77.10
52889;DHT22;41413;52.770;6.892;2023-09-07T10:20:53;35.20;75.60
52889;DHT22;41413;52.770;6.892;2023-09-07T10:23:21;34.80;77.50
52889;DHT22;41413;52.770;6.892;2023-09-07T10:25:51;34.70;78.40
52889;DHT22;41413;52.770;6.892;2023-09-07T10:31:00;34.30;79.20
52889;DHT22;41413;52.770;6.892;2023-09-07T10:33:29;34.20;79.80
52889;DHT22;41413;52.770;6.892;2023-09-07T10:35:58;34.00;79.70
52889;DHT22;41413;52.770;6.892;2023-09-07T10:38:25;33.80;78.80
52889;DHT22;41413;52.770;6.892;2023-09-07T10:40:56;33.70;80.00
52889;DHT22;41413;52.770;6.892;2023-09-07T10:43:31;33.70;80.10
52889;DHT22;41413;52.770;6.892;2023-09-07T10:46:00;33.70;80.60
52889;DHT22;41413;52.770;6.892;2023-09-07T10:48:31;33.70;79.80
52889;DHT22;41413;52.770;6.892;2023-09-07T10:50:58;33.50;79.90
52889;DHT22;41413;52.770;6.892;2023-09-07T10:53:31;33.40;80.10
52889;DHT22;41413;52.770;6.892;2023-09-07T10:56:02;33.40;79.80
52889;DHT22;41413;52.770;6.892;2023-09-07T10:58:37;33.40;80.00
52889;DHT22;41413;52.770;6.892;2023-09-07T11:01:06;33.40;80.10
52889;DHT22;41413;52.770;6.892;2023-09-07T11:03:33;33.60;79.50
52889;DHT22;41413;52.770;6.892;2023-09-07T11:06:11;33.80;79.00
52889;DHT22;41413;52.770;6.892;2023-09-07T11:08:40;33.80;79.30
52889;DHT22;41413;52.770;6.892;2023-09-07T11:11:09;33.70;79.10
52889;DHT22;41413;52.770;6.892;2023-09-07T11:13:36;33.20;78.30
52889;DHT22;41413;52.770;6.892;2023-09-07T11:16:03;33.20;79.10
52889;DHT22;41413;52.770;6.892;2023-09-07T11:18:30;33.10;79.00
52889;DHT22;41413;52.770;6.892;2023-09-07T11:20:57;33.00;79.20
52889;DHT22;41413;52.770;6.892;2023-09-07T11:23:23;33.00;79.80
52889;DHT22;41413;52.770;6.892;2023-09-07T11:25:50;33.10;79.60
52889;DHT22;41413;52.770;6.892;2023-09-07T11:28:19;33.10;79.90
52889;DHT22;41413;52.770;6.892;2023-09-07T11:30:53;33.20;80.20
52889;DHT22;41413;52.770;6.892;2023-09-07T11:33:22;33.10;79.90
52889;DHT22;41413;52.770;6.892;2023-09-07T11:35:50;33.10;80.10
52889;DHT22;41413;52.770;6.892;2023-09-07T11:38:17;33.00;80.40
52889;DHT22;41413;52.770;6.892;2023-09-07T11:40:44;33.00;80.10
52889;DHT22;41413;52.770;6.892;2023-09-07T11:43:16;32.90;79.70
52889;DHT22;41413;52.770;6.892;2023-09-07T11:45:46;32.90;79.80
52889;DHT22;41413;52.770;6.892;2023-09-07T11:48:13;32.80;80.50
52889;DHT22;41413;52.770;6.892;2023-09-07T11:50:40;32.80;80.40
52889;DHT22;41413;52.770;6.892;2023-09-07T11:53:07;32.80;80.50
52889;DHT22;41413;52.770;6.892;2023-09-07T11:55:35;32.90;80.00
52889;DHT22;41413;52.770;6.892;2023-09-07T11:58:03;32.90;80.10
52889;DHT22;41413;52.770;6.892;2023-09-07T12:00:31;32.90;79.90
52889;DHT22;41413;52.770;6.892;2023-09-07T12:02:58;32.80;80.40
52889;DHT22;41413;52.770;6.892;2023-09-07T12:05:26;32.90;79.90
52889;DHT22;41413;52.770;6.892;2023-09-07T12:07:53;32.80;80.20
52889;DHT22;41413;52.770;6.892;2023-09-07T12:10:20;33.00;80.00
52889;DHT22;41413;52.770;6.892;2023-09-07T12:12:47;32.90;80.40
52889;DHT22;41413;52.770;6.892;2023-09-07T12:15:14;32.90;80.10
52889;DHT22;41413;52.770;6.892;2023-09-07T12:17:41;32.80;80.60
52889;DHT22;41413;52.770;6.892;2023-09-07T12:20:09;32.90;80.50
52889;DHT22;41413;52.770;6.892;2023-09-07T12:22:37;32.80;80.50
52889;DHT22;41413;52.770;6.892;2023-09-07T12:25:05;32.80;81.20
52889;DHT22;41413;52.770;6.892;2023-09-07T12:27:45;32.90;80.20
52889;DHT22;41413;52.770;6.892;2023-09-07T12:30:19;32.80;80.20
52889;DHT22;41413;52.770;6.892;2023-09-07T12:32:46;32.80;80.90
52889;DHT22;41413;52.770;6.892;2023-09-07T12:35:13;32.70;81.20
52889;DHT22;41413;52.770;6.892;2023-09-07T12:37:42;32.60;81.10
52889;DHT22;41413;52.770;6.892;2023-09-07T12:40:09;32.50;81.10
52889;DHT22;41413;52.770;6.892;2023-09-07T12:42:43;32.50;81.70
52889;DHT22;41413;52.770;6.892;2023-09-07T12:45:11;32.40;81.60
52889;DHT22;41413;52.770;6.892;2023-09-07T12:47:39;32.50;81.50
52889;DHT22;41413;52.770;6.892;2023-09-07T12:50:07;32.50;81.40
52889;DHT22;41413;52.770;6.892;2023-09-07T12:52:34;32.60;81.40
52889;DHT22;41413;52.770;6.892;2023-09-07T12:55:05;32.50;81.30
52889;DHT22;41413;52.770;6.892;2023-09-07T12:57:33;32.50;80.50
52889;DHT22;41413;52.770;6.892;2023-09-07T13:00:00;32.40;80.40
52889;DHT22;41413;52.770;6.892;2023-09-07T13:02:26;32.30;80.10
52889;DHT22;41413;52.770;6.892;2023-09-07T13:04:56;32.40;79.60
52889;DHT22;41413;52.770;6.892;2023-09-07T13:07:23;32.30;78.40
52889;DHT22;41413;52.770;6.892;2023-09-07T13:09:50;32.20;77.80
52889;DHT22;41413;52.770;6.892;2023-09-07T13:12:17;32.20;79.00
52889;DHT22;41413;52.770;6.892;2023-09-07T13:14:43;32.30;79.60
52889;DHT22;41413;52.770;6.892;2023-09-07T13:17:12;32.30;79.50
52889;DHT22;41413;52.770;6.892;2023-09-07T13:19:43;32.30;79.10
52889;DHT22;41413;52.770;6.892;2023-09-07T13:22:10;32.30;79.10
52889;DHT22;41413;52.770;6.892;2023-09-07T13:24:37;32.30;78.80
52889;DHT22;41413;52.770;6.892;2023-09-07T13:27:04;32.40;78.90
52889;DHT22;41413;52.770;6.892;2023-09-07T13:29:32;32.40;78.50
52889;DHT22;41413;52.770;6.892;2023-09-07T13:31:59;32.40;78.40
52889;DHT22;41413;52.770;6.892;2023-09-07T13:34:26;32.30;78.40
52889;DHT22;41413;52.770;6.892;2023-09-07T13:36:53;32.40;78.50
52889;DHT22;41413;52.770;6.892;2023-09-07T13:39:21;32.20;77.90
52889;DHT22;41413;52.770;6.892;2023-09-07T13:41:48;32.20;78.20
52889;DHT22;41413;52.770;6.892;2023-09-07T13:44:15;32.20;78.30
52889;DHT22;41413;52.770;6.892;2023-09-07T13:46:43;32.30;78.60
52889;DHT22;41413;52.770;6.892;2023-09-07T13:49:11;32.40;77.90
52889;DHT22;41413;52.770;6.892;2023-09-07T13:51:40;32.40;78.30
52889;DHT22;41413;52.770;6.892;2023-09-07T13:54:08;32.40;78.80
52889;DHT22;41413;52.770;6.892;2023-09-07T13:56:35;32.40;78.90
52889;DHT22;41413;52.770;6.892;2023-09-07T13:59:06;32.30;78.60
52889;DHT22;41413;52.770;6.892;2023-09-07T14:01:33;32.30;78.80
52889;DHT22;41413;52.770;6.892;2023-09-07T14:04:00;32.40;78.90
52889;DHT22;41413;52.770;6.892;2023-09-07T14:06:27;32.40;78.90
52889;DHT22;41413;52.770;6.892;2023-09-07T14:08:53;32.40;79.10
52889;DHT22;41413;52.770;6.892;2023-09-07T14:11:20;32.30;79.70
52889;DHT22;41413;52.770;6.892;2023-09-07T14:13:49;32.30;79.80
52889;DHT22;41413;52.770;6.892;2023-09-07T14:16:19;32.30;79.90
52889;DHT22;41413;52.770;6.892;2023-09-07T14:18:49;32.30;79.50
52889;DHT22;41413;52.770;6.892;2023-09-07T14:21:17;32.30;79.10
52889;DHT22;41413;52.770;6.892;2023-09-07T14:23:44;32.20;79.10
52889;DHT22;41413;52.770;6.892;2023-09-07T14:26:12;32.20;79.10
52889;DHT22;41413;52.770;6.892;2023-09-07T14:28:39;32.10;79.10
52889;DHT22;41413;52.770;6.892;2023-09-07T14:31:06;32.00;79.00
52889;DHT22;41413;52.770;6.892;2023-09-07T14:33:35;32.00;78.90
52889;DHT22;41413;52.770;6.892;2023-09-07T14:36:06;31.90;79.10
52889;DHT22;41413;52.770;6.892;2023-09-07T14:38:33;31.90;79.70
52889;DHT22;41413;52.770;6.892;2023-09-07T14:41:08;31.90;79.80
52889;DHT22;41413;52.770;6.892;2023-09-07T14:43:38;31.80;79.20
52889;DHT22;41413;52.770;6.892;2023-09-07T14:46:05;31.80;79.00
52889;DHT22;41413;52.770;6.892;2023-09-07T14:48:32;31.80;79.20
52889;DHT22;41413;52.770;6.892;2023-09-07T14:50:59;31.70;79.20
52889;DHT22;41413;52.770;6.892;2023-09-07T14:53:26;31.70;79.20
52889;DHT22;41413;52.770;6.892;2023-09-07T14:55:52;31.70;79.50
52889;DHT22;41413;52.770;6.892;2023-09-07T14:58:19;31.70;79.80
52889;DHT22;41413;52.770;6.892;2023-09-07T15:00:46;31.70;80.30
52889;DHT22;41413;52.770;6.892;2023-09-07T15:03:13;31.70;79.90
52889;DHT22;41413;52.770;6.892;2023-09-07T15:05:40;31.60;79.30
52889;DHT22;41413;52.770;6.892;2023-09-07T15:08:07;31.50;79.10
52889;DHT22;41413;52.770;6.892;2023-09-07T15:10:34;31.50;79.70
52889;DHT22;41413;52.770;6.892;2023-09-07T15:13:01;31.40;79.50
52889;DHT22;41413;52.770;6.892;2023-09-07T15:15:33;31.40;80.10
52889;DHT22;41413;52.770;6.892;2023-09-07T15:18:03;31.40;80.50
52889;DHT22;41413;52.770;6.892;2023-09-07T15:20:30;31.30;80.30
52889;DHT22;41413;52.770;6.892;2023-09-07T15:22:57;31.30;80.70
52889;DHT22;41413;52.770;6.892;2023-09-07T15:25:24;31.20;80.40
52889;DHT22;41413;52.770;6.892;2023-09-07T15:27:51;31.20;80.60
52889;DHT22;41413;52.770;6.892;2023-09-07T15:30:18;31.10;80.70
52889;DHT22;41413;52.770;6.892;2023-09-07T15:32:45;31.10;80.70
52889;DHT22;41413;52.770;6.892;2023-09-07T15:35:12;31.00;80.60
52889;DHT22;41413;52.770;6.892;2023-09-07T15:37:39;31.00;80.70